Time;durP1;ratioP1;P1;durP2;ratioP2;P2;SDS_P1;SDS_P2;PMS_P1;PMS_P2;Temp;Humidity;BMP_temperature;BMP_pressure;BME280_temperature;BME280_humidity;BME280_pressure;Samples;Min_cycle;Max_cycle;Signal;HPM_P1;HPM_P2
2022/01/25 00:28:23;;;;;;;43.65;15.55;;;;;;;;;;4986259;28;20046;-73
2022/01/25 00:31:09;;;;;;;48.20;17.13;;;;;;;;;;4977396;28;20038;-72
2022/01/25 00:33:36;;;;;;;48.85;16.33;;;;;;;;;;4989227;28;20050;-73
2022/01/25 00:36:05;;;;;;;50.15;18.02;;;;;;;;;;4990864;28;20512;-72
2022/01/25 00:38:30;;;;;;;50.88;16.73;;;;;;;;;;4988338;28;20125;-70
2022/01/25 00:40:56;;;;;;;47.97;17.30;;;;;;;;;;4990112;28;20103;-72
2022/01/25 00:43:23;;;;;;;47.65;16.38;;;;;;;;;;4992747;28;20096;-72
2022/01/25 00:45:50;;;;;;;48.95;17.80;;;;;;;;;;4990607;28;20419;-72
2022/01/25 00:48:30;;;;;;;55.45;17.98;;;;;;;;;;4989407;28;20057;-70
2022/01/25 00:51:13;;;;;;;47.33;17.70;;;;;;;;;;4981923;28;20132;-72
2022/01/25 00:53:59;;;;;;;;;;;;;;;;;;4989224;28;20114;-73
2022/01/25 00:56:28;;;;;;;45.78;16.95;;;;;;;;;;4987916;28;20284;-73
2022/01/25 00:58:54;;;;;;;51.63;17.85;;;;;;;;;;4988652;28;20033;-72
2022/01/25 01:01:21;;;;;;;50.15;17.70;;;;;;;;;;4990046;28;20034;-73
2022/01/25 01:03:46;;;;;;;49.72;17.90;;;;;;;;;;4994286;28;20034;-73
2022/01/25 01:06:12;;;;;;;50.85;17.70;;;;;;;;;;4990016;28;20108;-72
2022/01/25 01:08:37;;;;;;;51.17;17.98;;;;;;;;;;4988336;28;20504;-72
2022/01/25 01:11:07;;;;;;;50.00;18.00;;;;;;;;;;4976093;28;20117;-68
2022/01/25 01:29:53;;;;;;;42.10;16.67;;;;;;;;;;4988920;28;20209;-72
2022/01/25 01:45:38;;;;;;;49.10;16.25;;;;;;;;;;4988414;28;20125;-73
2022/01/25 01:48:07;;;;;;;47.35;17.48;;;;;;;;;;4988208;28;20054;-73
2022/01/25 01:50:35;;;;;;;50.22;16.70;;;;;;;;;;4996377;28;20046;-72
2022/01/25 01:53:03;;;;;;;51.03;18.23;;;;;;;;;;4992975;28;20057;-72
2022/01/25 01:55:29;;;;;;;53.15;18.25;;;;;;;;;;4993913;28;20081;-72
2022/01/25 01:57:55;;;;;;;52.58;18.13;;;;;;;;;;4989031;28;20065;-73
2022/01/25 02:00:28;;;;;;;48.45;17.13;;;;;;;;;;4988910;28;20034;-73
2022/01/25 02:02:53;;;;;;;47.92;17.45;;;;;;;;;;4989145;28;20115;-72
2022/01/25 02:05:19;;;;;;;50.40;18.77;;;;;;;;;;4986511;28;20501;-73
2022/01/25 02:07:44;;;;;;;49.53;17.40;;;;;;;;;;4989667;28;20109;-72
2022/01/25 02:10:10;;;;;;;43.55;16.15;;;;;;;;;;4987770;28;20034;-72
2022/01/25 02:12:35;;;;;;;55.20;17.63;;;;;;;;;;4989319;28;20042;-73
2022/01/25 02:15:04;;;;;;;53.47;18.90;;;;;;;;;;4998399;28;20057;-73
2022/01/25 02:23:18;;;;;;;45.78;17.08;;;;;;;;;;4951996;28;20055;-72
2022/01/25 02:25:45;;;;;;;53.63;16.10;;;;;;;;;;4986592;28;20062;-73
2022/01/25 02:28:12;;;;;;;53.08;17.13;;;;;;;;;;4988810;28;20034;-73
2022/01/25 02:30:38;;;;;;;47.28;18.88;;;;;;;;;;5002029;28;20069;-73
2022/01/25 02:33:03;;;;;;;47.95;17.75;;;;;;;;;;4988060;28;20046;-72
2022/01/25 02:35:28;;;;;;;52.33;17.90;;;;;;;;;;4987666;28;20046;-73
2022/01/25 02:37:54;;;;;;;50.08;17.83;;;;;;;;;;4995483;28;20399;-73
2022/01/25 02:40:19;;;;;;;50.60;16.70;;;;;;;;;;4989359;28;20037;-73
2022/01/25 02:42:44;;;;;;;48.80;17.67;;;;;;;;;;4986968;28;20034;-73
2022/01/25 02:45:15;;;;;;;46.13;15.70;;;;;;;;;;4987820;28;20118;-72
2022/01/25 02:50:24;;;;;;;61.45;21.92;;;;;;;;;;4983266;28;20053;-72
2022/01/25 02:52:50;;;;;;;62.42;21.80;;;;;;;;;;4987370;28;20034;-73
2022/01/25 02:55:17;;;;;;;54.60;19.27;;;;;;;;;;4987774;28;20034;-72
2022/01/25 02:57:43;;;;;;;44.13;16.92;;;;;;;;;;4986847;28;20765;-73
2022/01/25 03:00:10;;;;;;;57.42;18.77;;;;;;;;;;4987965;28;20041;-73
2022/01/25 03:02:36;;;;;;;53.22;17.48;;;;;;;;;;4986854;28;20050;-72
2022/01/25 03:05:01;;;;;;;48.72;18.25;;;;;;;;;;4997109;28;20036;-71
2022/01/25 03:07:26;;;;;;;57.28;20.45;;;;;;;;;;4983228;28;20038;-73
2022/01/25 03:09:53;;;;;;;53.92;18.52;;;;;;;;;;4985480;28;20050;-72
2022/01/25 03:12:29;;;;;;;56.47;18.88;;;;;;;;;;4985909;28;20444;-72
2022/01/25 03:15:21;;;;;;;55.95;18.88;;;;;;;;;;4987964;28;20037;-73
2022/01/25 03:17:49;;;;;;;52.90;18.58;;;;;;;;;;4997273;28;20120;-73
2022/01/25 03:20:18;;;;;;;46.67;17.17;;;;;;;;;;4987872;28;20117;-72
2022/01/25 03:25:18;;;;;;;47.22;17.88;;;;;;;;;;4984625;28;20066;-72
2022/01/25 03:27:43;;;;;;;52.47;17.25;;;;;;;;;;4984718;28;20069;-72
2022/01/25 03:30:09;;;;;;;50.15;17.33;;;;;;;;;;4987376;28;20412;-72
2022/01/25 03:32:34;;;;;;;48.40;18.55;;;;;;;;;;4986195;28;20034;-73
2022/01/25 03:35:00;;;;;;;51.42;17.92;;;;;;;;;;5003181;28;20023;-72
2022/01/25 03:37:25;;;;;;;52.63;18.67;;;;;;;;;;4987259;28;20043;-73
2022/01/25 03:39:50;;;;;;;53.88;17.52;;;;;;;;;;4993902;28;20177;-73
2022/01/25 03:42:18;;;;;;;54.90;19.48;;;;;;;;;;4989390;28;20038;-73
2022/01/25 03:44:44;;;;;;;53.67;19.10;;;;;;;;;;5008822;28;20052;-72
2022/01/25 03:47:13;;;;;;;55.55;19.42;;;;;;;;;;5005988;28;20030;-72
2022/01/25 03:49:52;;;;;;;52.67;18.92;;;;;;;;;;5006349;28;20049;-73
2022/01/25 03:52:32;;;;;;;57.70;20.40;;;;;;;;;;5003865;28;20046;-73
2022/01/25 03:54:58;;;;;;;55.70;18.15;;;;;;;;;;4997494;28;20133;-73
2022/01/25 03:57:25;;;;;;;57.33;17.58;;;;;;;;;;5010830;28;20113;-73
2022/01/25 03:59:51;;;;;;;50.53;18.08;;;;;;;;;;5011488;28;20428;-73
2022/01/25 04:02:16;;;;;;;52.40;18.10;;;;;;;;;;5011209;28;20569;-73
2022/01/25 04:04:42;;;;;;;58.30;19.52;;;;;;;;;;5011383;28;20030;-72
2022/01/25 04:07:12;;;;;;;54.65;18.80;;;;;;;;;;4993880;28;20074;-73
2022/01/25 04:09:38;;;;;;;48.10;18.02;;;;;;;;;;4991074;28;20048;-73
2022/01/25 04:12:05;;;;;;;54.50;19.25;;;;;;;;;;4981927;28;20054;-73
2022/01/25 04:14:30;;;;;;;54.53;18.85;;;;;;;;;;4989551;28;20038;-72
2022/01/25 04:17:03;;;;;;;54.22;18.25;;;;;;;;;;4997868;28;20030;-71
2022/01/25 04:25:24;;;;;;;58.40;18.98;;;;;;;;;;5009131;28;20068;-73
2022/01/25 04:27:31;;;;;;;53.03;17.75;;;;;;;;;;5004452;28;20049;-73
2022/01/25 04:29:57;;;;;;;53.95;17.58;;;;;;;;;;5007003;28;20030;-72
2022/01/25 04:32:32;;;;;;;53.92;18.83;;;;;;;;;;5004217;28;20525;-73
2022/01/25 04:54:07;;;;;;;50.67;18.17;;;;;;;;;;4996473;28;20041;-73
2022/01/25 04:56:40;;;;;;;55.65;20.15;;;;;;;;;;4982795;28;20198;-72
2022/01/25 04:59:29;;;;;;;;;;;;;;;;;;4989632;28;20027;-72
2022/01/25 05:02:02;;;;;;;43.95;17.23;;;;;;;;;;4990710;28;19917;-73
2022/01/25 05:04:32;;;;;;;58.33;19.52;;;;;;;;;;5002744;28;20042;-73
2022/01/25 05:07:07;;;;;;;52.50;18.52;;;;;;;;;;4988614;28;20050;-72
2022/01/25 05:09:34;;;;;;;58.08;19.70;;;;;;;;;;4979425;28;20497;-72
2022/01/25 05:11:59;;;;;;;54.72;19.02;;;;;;;;;;5000787;28;20113;-72
2022/01/25 05:14:32;;;;;;;50.97;18.50;;;;;;;;;;4990303;28;20236;-72
2022/01/25 05:17:03;;;;;;;48.72;17.10;;;;;;;;;;5004557;28;20018;-72
2022/01/25 05:22:05;;;;;;;51.35;18.95;;;;;;;;;;5008358;28;20065;-72
2022/01/25 05:24:37;;;;;;;54.38;19.23;;;;;;;;;;5008072;28;20048;-71
2022/01/25 05:27:04;;;;;;;49.75;17.90;;;;;;;;;;5003707;28;20964;-72
2022/01/25 05:29:29;;;;;;;54.78;19.20;;;;;;;;;;5006894;28;20068;-72
2022/01/25 05:31:54;;;;;;;60.13;17.92;;;;;;;;;;5008519;28;20049;-72
2022/01/25 05:34:20;;;;;;;54.28;18.85;;;;;;;;;;5007839;28;20034;-73
2022/01/25 05:36:45;;;;;;;52.13;18.88;;;;;;;;;;5009351;28;20038;-72
2022/01/25 05:39:14;;;;;;;60.20;22.02;;;;;;;;;;5008898;28;20037;-74
2022/01/25 05:41:41;;;;;;;58.13;19.13;;;;;;;;;;5008187;28;20420;-72
2022/01/25 05:44:22;;;;;;;60.40;19.55;;;;;;;;;;5008565;28;20030;-72
2022/01/25 05:47:04;;;;;;;54.92;18.88;;;;;;;;;;5009757;28;20034;-72
2022/01/25 05:49:30;;;;;;;53.80;19.52;;;;;;;;;;4984193;28;20085;-72
2022/01/25 05:51:55;;;;;;;59.33;21.50;;;;;;;;;;4994619;28;20121;-72
2022/01/25 05:54:20;;;;;;;61.70;22.45;;;;;;;;;;5000067;28;20125;-72
2022/01/25 05:56:46;;;;;;;64.40;22.83;;;;;;;;;;4992910;28;20056;-71
2022/01/25 05:59:11;;;;;;;65.15;22.10;;;;;;;;;;4989206;28;20034;-70
2022/01/25 06:01:36;;;;;;;61.40;21.77;;;;;;;;;;4989074;28;20025;-72
2022/01/25 06:04:02;;;;;;;62.90;22.70;;;;;;;;;;5008504;28;20045;-71
2022/01/25 06:06:29;;;;;;;63.33;21.52;;;;;;;;;;5008378;28;20038;-72
2022/01/25 06:08:55;;;;;;;54.83;20.05;;;;;;;;;;5006010;28;20467;-72
2022/01/25 06:11:21;;;;;;;58.45;21.58;;;;;;;;;;5008027;28;20049;-72
2022/01/25 06:13:47;;;;;;;55.45;20.33;;;;;;;;;;5007670;28;20769;-71
2022/01/25 06:16:12;;;;;;;56.85;19.40;;;;;;;;;;5013620;28;20519;-72
2022/01/25 06:18:38;;;;;;;62.88;20.60;;;;;;;;;;4998790;28;20049;-72
2022/01/25 06:21:03;;;;;;;70.68;22.77;;;;;;;;;;5003325;28;20050;-69
2022/01/25 06:23:28;;;;;;;82.95;25.45;;;;;;;;;;5005948;28;20042;-72
2022/01/25 06:25:54;;;;;;;62.85;21.85;;;;;;;;;;5007842;28;20057;-71
2022/01/25 06:28:19;;;;;;;72.93;23.40;;;;;;;;;;4989251;28;20042;-72
2022/01/25 06:30:45;;;;;;;69.47;21.85;;;;;;;;;;5007165;28;20164;-72
2022/01/25 06:33:10;;;;;;;111.20;23.42;;;;;;;;;;5005854;28;20053;-73
2022/01/25 06:35:36;;;;;;;71.40;22.55;;;;;;;;;;5002803;28;20173;-72
2022/01/25 06:38:02;;;;;;;78.45;22.73;;;;;;;;;;5007522;28;20111;-72
2022/01/25 06:40:28;;;;;;;129.15;20.50;;;;;;;;;;4987912;28;20069;-71
2022/01/25 06:42:54;;;;;;;102.75;19.60;;;;;;;;;;4989232;28;20077;-72
2022/01/25 06:45:22;;;;;;;156.35;19.27;;;;;;;;;;4975422;28;20524;-72
2022/01/25 06:47:49;;;;;;;112.45;17.55;;;;;;;;;;4973824;28;20126;-72
2022/01/25 06:50:17;;;;;;;61.08;16.88;;;;;;;;;;4983151;28;20389;-71
2022/01/25 06:52:42;;;;;;;161.13;18.80;;;;;;;;;;4986767;28;20515;-72
2022/01/25 06:55:14;;;;;;;88.55;15.77;;;;;;;;;;4985231;28;20034;-71
2022/01/25 06:57:40;;;;;;;64.00;16.30;;;;;;;;;;4984617;28;20038;-72
2022/01/25 07:00:10;;;;;;;104.88;18.95;;;;;;;;;;4983403;28;20085;-72
2022/01/25 07:02:35;;;;;;;101.05;14.15;;;;;;;;;;4984609;28;20050;-72
2022/01/25 07:05:01;;;;;;;136.73;18.98;;;;;;;;;;4978421;28;20034;-72
2022/01/25 07:07:26;;;;;;;221.52;21.55;;;;;;;;;;4953527;28;20042;-71
2022/01/25 07:09:52;;;;;;;113.82;19.00;;;;;;;;;;4961132;28;20925;-72
2022/01/25 07:12:17;;;;;;;117.32;16.17;;;;;;;;;;4974573;28;20396;-71
2022/01/25 07:14:43;;;;;;;120.32;18.08;;;;;;;;;;4969635;28;20321;-72
2022/01/25 07:17:08;;;;;;;109.97;18.30;;;;;;;;;;4978038;28;20033;-71
2022/01/25 07:19:34;;;;;;;131.23;18.10;;;;;;;;;;4965663;28;20462;-75
2022/01/25 07:21:59;;;;;;;132.90;19.52;;;;;;;;;;4965037;28;20039;-72
2022/01/25 07:24:24;;;;;;;123.40;18.13;;;;;;;;;;4966059;28;20039;-71
2022/01/25 07:26:50;;;;;;;162.13;21.02;;;;;;;;;;4964452;28;20130;-72
2022/01/25 07:29:16;;;;;;;156.43;18.92;;;;;;;;;;4951662;28;20058;-74
2022/01/25 07:31:42;;;;;;;102.15;17.42;;;;;;;;;;4981188;28;20066;-73
2022/01/25 07:34:07;;;;;;;103.63;17.63;;;;;;;;;;4979242;28;20070;-73
2022/01/25 07:36:34;;;;;;;118.95;19.05;;;;;;;;;;4964255;28;20276;-72
2022/01/25 07:39:00;;;;;;;99.60;16.65;;;;;;;;;;4957867;28;20042;-71
2022/01/25 07:41:25;;;;;;;95.47;16.67;;;;;;;;;;4956785;28;20047;-72
2022/01/25 07:43:50;;;;;;;162.07;18.48;;;;;;;;;;4966131;28;20070;-72
2022/01/25 07:46:16;;;;;;;103.40;17.33;;;;;;;;;;4955190;28;20618;-70
2022/01/25 07:48:42;;;;;;;179.30;19.73;;;;;;;;;;4955078;28;20145;-69
2022/01/25 07:51:08;;;;;;;114.70;17.60;;;;;;;;;;4958318;28;20118;-71
2022/01/25 07:53:33;;;;;;;102.88;17.48;;;;;;;;;;4949905;28;20070;-70
2022/01/25 07:55:59;;;;;;;78.05;17.05;;;;;;;;;;4966826;28;20050;-71
2022/01/25 07:58:24;;;;;;;94.05;17.05;;;;;;;;;;4955369;28;20130;-71
2022/01/25 08:00:50;;;;;;;101.65;17.33;;;;;;;;;;4962881;28;20404;-69
2022/01/25 08:03:18;;;;;;;116.88;16.95;;;;;;;;;;4960973;28;20065;-69
2022/01/25 08:05:52;;;;;;;124.55;16.95;;;;;;;;;;4972656;28;20547;-70
2022/01/25 08:08:18;;;;;;;113.55;17.60;;;;;;;;;;4985487;28;20471;-69
2022/01/25 08:10:43;;;;;;;77.35;15.68;;;;;;;;;;4969186;28;20038;-69
2022/01/25 08:13:09;;;;;;;120.20;16.05;;;;;;;;;;4972155;28;20074;-69
2022/01/25 08:15:34;;;;;;;84.47;17.65;;;;;;;;;;4975177;28;20612;-69
2022/01/25 08:18:00;;;;;;;68.68;15.52;;;;;;;;;;4981768;28;20045;-69
2022/01/25 08:20:26;;;;;;;102.05;15.18;;;;;;;;;;4967919;28;20074;-67
2022/01/25 08:22:51;;;;;;;78.22;14.20;;;;;;;;;;4968857;28;20034;-69
2022/01/25 08:25:17;;;;;;;92.78;16.92;;;;;;;;;;4984009;28;20114;-69
2022/01/25 08:27:43;;;;;;;108.65;16.92;;;;;;;;;;4983174;28;20062;-72
2022/01/25 08:30:09;;;;;;;83.20;17.55;;;;;;;;;;4982482;28;20040;-71
2022/01/25 08:32:35;;;;;;;90.32;16.85;;;;;;;;;;4973088;28;20035;-71
2022/01/25 08:35:01;;;;;;;113.25;16.25;;;;;;;;;;4975809;28;20030;-71
2022/01/25 08:37:26;;;;;;;111.82;16.45;;;;;;;;;;4975993;28;20045;-69
2022/01/25 08:39:52;;;;;;;137.10;16.95;;;;;;;;;;4980453;28;20057;-70
2022/01/25 08:42:18;;;;;;;99.50;20.30;;;;;;;;;;4985779;28;20595;-72
2022/01/25 08:44:43;;;;;;;125.95;19.42;;;;;;;;;;4983097;28;20042;-72
2022/01/25 08:47:09;;;;;;;124.70;23.70;;;;;;;;;;4987807;28;20052;-71
2022/01/25 08:49:35;;;;;;;124.65;20.23;;;;;;;;;;4993658;28;20037;-71
2022/01/25 08:52:01;;;;;;;203.05;24.55;;;;;;;;;;4968680;28;20531;-70
2022/01/25 08:54:27;;;;;;;106.65;22.45;;;;;;;;;;4986608;28;20093;-70
2022/01/25 08:56:53;;;;;;;109.40;18.15;;;;;;;;;;4997833;28;20657;-71
2022/01/25 08:59:19;;;;;;;60.97;17.02;;;;;;;;;;4980619;28;20045;-70
2022/01/25 09:01:44;;;;;;;100.65;19.05;;;;;;;;;;4982609;28;20035;-71
2022/01/25 09:04:10;;;;;;;88.25;16.00;;;;;;;;;;4982497;28;20037;-72
2022/01/25 09:06:35;;;;;;;94.22;17.10;;;;;;;;;;4988550;28;20046;-72
2022/01/25 09:09:04;;;;;;;79.28;18.13;;;;;;;;;;4978432;28;20047;-69
2022/01/25 09:11:31;;;;;;;144.73;20.48;;;;;;;;;;4984085;28;20680;-70
2022/01/25 09:13:56;;;;;;;101.88;18.88;;;;;;;;;;4984316;28;20052;-71
2022/01/25 09:16:22;;;;;;;101.65;19.05;;;;;;;;;;4985242;28;20417;-70
2022/01/25 09:18:47;;;;;;;96.18;18.08;;;;;;;;;;4979479;28;20428;-71
2022/01/25 09:21:12;;;;;;;186.13;19.13;;;;;;;;;;4980745;28;20069;-68
2022/01/25 09:23:38;;;;;;;161.93;22.50;;;;;;;;;;4980132;28;20101;-69
2022/01/25 09:26:04;;;;;;;106.35;23.58;;;;;;;;;;4982001;28;20041;-69
2022/01/25 09:28:30;;;;;;;115.18;21.33;;;;;;;;;;4987331;28;20066;-69
2022/01/25 09:30:56;;;;;;;141.18;19.02;;;;;;;;;;4979235;28;20732;-70
2022/01/25 09:33:22;;;;;;;75.55;17.10;;;;;;;;;;4983483;28;20034;-70
2022/01/25 09:35:48;;;;;;;101.35;17.48;;;;;;;;;;5001119;28;20042;-72
2022/01/25 09:38:14;;;;;;;124.03;19.27;;;;;;;;;;4987492;28;20244;-71
2022/01/25 09:40:40;;;;;;;122.68;19.42;;;;;;;;;;4986990;28;20077;-71
2022/01/25 09:43:07;;;;;;;96.03;16.23;;;;;;;;;;4981889;28;20129;-70
2022/01/25 09:45:34;;;;;;;116.55;17.88;;;;;;;;;;4980458;28;20121;-71
2022/01/25 09:47:59;;;;;;;126.20;18.80;;;;;;;;;;4985941;28;20038;-70
2022/01/25 09:50:26;;;;;;;130.23;19.42;;;;;;;;;;4986084;28;20049;-69
2022/01/25 09:52:52;;;;;;;130.90;19.05;;;;;;;;;;4986453;28;20029;-71
2022/01/25 09:55:21;;;;;;;128.73;17.77;;;;;;;;;;4981588;28;20550;-71
2022/01/25 09:57:47;;;;;;;141.38;18.10;;;;;;;;;;4979854;28;20042;-69
2022/01/25 10:00:16;;;;;;;50.67;15.85;;;;;;;;;;4989105;28;20034;-70
2022/01/25 10:03:10;;;;;;;89.93;16.20;;;;;;;;;;4983579;28;20034;-71
2022/01/25 10:05:38;;;;;;;121.68;16.63;;;;;;;;;;4984234;28;20424;-72
2022/01/25 10:08:15;;;;;;;60.88;16.27;;;;;;;;;;4984096;28;20030;-73
2022/01/25 10:10:50;;;;;;;63.85;15.75;;;;;;;;;;4989769;28;20039;-71
2022/01/25 10:13:26;;;;;;;180.93;17.50;;;;;;;;;;4984584;28;20464;-72
2022/01/25 10:16:11;;;;;;;84.80;17.45;;;;;;;;;;4969637;28;20113;-71
2022/01/25 10:18:44;;;;;;;114.90;15.68;;;;;;;;;;4981346;28;20041;-71
2022/01/25 10:21:11;;;;;;;118.35;16.95;;;;;;;;;;4979096;28;20042;-70
2022/01/25 10:23:37;;;;;;;78.10;15.52;;;;;;;;;;4967032;28;20041;-71
2022/01/25 10:26:04;;;;;;;91.35;18.10;;;;;;;;;;4982295;28;20046;-72
2022/01/25 10:28:30;;;;;;;75.38;17.05;;;;;;;;;;4982451;28;20046;-72
2022/01/25 10:30:59;;;;;;;47.47;15.18;;;;;;;;;;4974242;28;20103;-72
2022/01/25 10:33:36;;;;;;;69.60;14.48;;;;;;;;;;4987141;28;20519;-71
2022/01/25 10:36:19;;;;;;;93.82;17.65;;;;;;;;;;4981128;28;20046;-69
2022/01/25 10:38:47;;;;;;;87.78;17.83;;;;;;;;;;4969471;28;20125;-69
2022/01/25 10:41:18;;;;;;;60.83;15.05;;;;;;;;;;4982452;28;20042;-68
2022/01/25 10:43:46;;;;;;;74.18;16.27;;;;;;;;;;4981928;28;20030;-70
2022/01/25 10:46:22;;;;;;;72.22;15.55;;;;;;;;;;5002171;28;20609;-70
2022/01/25 10:49:00;;;;;;;104.15;19.20;;;;;;;;;;5000264;28;20056;-69
2022/01/25 10:51:32;;;;;;;87.75;15.45;;;;;;;;;;5003582;28;20125;-70
2022/01/25 10:54:16;;;;;;;54.73;15.50;;;;;;;;;;4997158;28;20112;-70
2022/01/25 10:56:46;;;;;;;;;;;;;;;;;;4985440;28;20041;-70
2022/01/25 10:59:18;;;;;;;68.65;15.93;;;;;;;;;;4985477;28;19914;-70
2022/01/25 11:01:53;;;;;;;72.07;16.05;;;;;;;;;;4984771;28;20026;-70
2022/01/25 11:04:22;;;;;;;72.50;15.93;;;;;;;;;;4984104;28;20038;-69
2022/01/25 11:06:58;;;;;;;74.88;16.27;;;;;;;;;;4981342;28;20532;-69
2022/01/25 11:09:26;;;;;;;83.57;17.08;;;;;;;;;;4979019;28;20034;-70
2022/01/25 11:11:55;;;;;;;100.43;19.83;;;;;;;;;;4986110;28;20089;-70
2022/01/25 11:17:05;;;;;;;80.95;15.65;;;;;;;;;;4992100;28;20608;-69
2022/01/25 11:19:30;;;;;;;62.63;16.42;;;;;;;;;;4982439;28;20487;-70
2022/01/25 11:21:58;;;;;;;59.78;16.58;;;;;;;;;;4981184;28;20723;-69
2022/01/25 11:24:26;;;;;;;95.07;16.80;;;;;;;;;;4981243;28;20129;-69
2022/01/25 11:26:52;;;;;;;123.28;18.48;;;;;;;;;;4982158;28;20043;-71
2022/01/25 11:29:18;;;;;;;54.70;14.23;;;;;;;;;;4994465;28;20054;-71
2022/01/25 11:32:02;;;;;;;85.53;18.13;;;;;;;;;;4981133;28;20121;-70
2022/01/25 11:34:30;;;;;;;91.50;16.10;;;;;;;;;;4981937;28;20064;-71
2022/01/25 11:36:58;;;;;;;87.25;18.10;;;;;;;;;;4981120;28;20227;-71
2022/01/25 11:39:28;;;;;;;82.00;16.17;;;;;;;;;;4980766;28;20042;-71
2022/01/25 11:42:24;;;;;;;60.88;15.30;;;;;;;;;;4983109;28;20061;-71
2022/01/25 11:44:57;;;;;;;50.97;16.65;;;;;;;;;;4982459;28;20034;-71
2022/01/25 11:47:34;;;;;;;42.78;16.48;;;;;;;;;;4983761;28;25295;-71
2022/01/25 11:50:06;;;;;;;73.63;14.35;;;;;;;;;;4980134;28;20029;-71
2022/01/25 11:52:32;;;;;;;74.47;14.57;;;;;;;;;;4980633;28;20129;-71
2022/01/25 11:55:16;;;;;;;57.72;13.80;;;;;;;;;;4991232;28;20726;-71
2022/01/25 11:58:03;;;;;;;86.90;16.88;;;;;;;;;;4980806;28;20038;-70
2022/01/25 12:00:49;;;;;;;65.05;17.73;;;;;;;;;;4995071;28;20034;-71
2022/01/25 12:03:31;;;;;;;80.85;17.48;;;;;;;;;;4989729;28;20051;-71
2022/01/25 12:05:59;;;;;;;78.68;16.75;;;;;;;;;;4979849;28;20057;-71
2022/01/25 12:11:24;;;;;;;86.90;16.02;;;;;;;;;;4984987;28;20057;-72
2022/01/25 12:14:21;;;;;;;66.82;19.08;;;;;;;;;;4988077;28;20095;-72
2022/01/25 12:17:02;;;;;;;62.63;17.85;;;;;;;;;;4982994;28;20045;-70
2022/01/25 12:19:30;;;;;;;103.53;17.15;;;;;;;;;;4983516;28;20105;-71
2022/01/25 12:22:01;;;;;;;78.35;18.73;;;;;;;;;;4987030;28;20038;-73
2022/01/25 12:25:04;;;;;;;72.75;17.88;;;;;;;;;;4987356;28;20038;-73
2022/01/25 12:27:56;;;;;;;55.35;15.02;;;;;;;;;;4992268;28;20120;-72
2022/01/25 12:30:34;;;;;;;55.05;16.33;;;;;;;;;;4981258;28;20073;-73
2022/01/25 12:33:08;;;;;;;79.05;17.80;;;;;;;;;;4987100;28;20540;-73
2022/01/25 12:35:44;;;;;;;57.13;14.15;;;;;;;;;;4984980;28;20849;-72
2022/01/25 12:38:19;;;;;;;58.63;16.95;;;;;;;;;;4979139;28;20030;-73
2022/01/25 12:40:50;;;;;;;47.70;16.15;;;;;;;;;;4982478;28;20038;-70
2022/01/25 12:43:19;;;;;;;71.43;16.90;;;;;;;;;;4983757;28;20050;-70
2022/01/25 12:45:54;;;;;;;59.70;15.90;;;;;;;;;;4981980;28;20038;-72
2022/01/25 12:48:27;;;;;;;57.75;15.38;;;;;;;;;;4984528;28;20512;-72
2022/01/25 12:50:55;;;;;;;66.20;14.88;;;;;;;;;;4989926;28;20053;-71
2022/01/25 12:53:24;;;;;;;73.25;14.68;;;;;;;;;;4988055;28;20515;-72
2022/01/25 12:55:52;;;;;;;60.55;15.80;;;;;;;;;;4990296;28;20032;-72
2022/01/25 12:58:27;;;;;;;47.42;15.07;;;;;;;;;;4985744;28;20045;-72
2022/01/25 13:00:55;;;;;;;65.88;16.40;;;;;;;;;;5002761;28;20609;-72
2022/01/25 13:03:33;;;;;;;49.47;14.80;;;;;;;;;;4983227;28;20034;-67
2022/01/25 13:06:03;;;;;;;58.00;17.02;;;;;;;;;;4982342;28;20049;-68
2022/01/25 13:08:44;;;;;;;48.60;15.23;;;;;;;;;;4998925;28;20506;-67
2022/01/25 13:11:18;;;;;;;58.35;16.20;;;;;;;;;;4983599;28;20057;-69
2022/01/25 13:13:58;;;;;;;65.82;15.70;;;;;;;;;;4984588;28;20026;-71
2022/01/25 13:16:45;;;;;;;71.85;17.83;;;;;;;;;;4979851;28;20786;-70
2022/01/25 13:19:11;;;;;;;61.88;16.85;;;;;;;;;;4981878;28;20389;-71
2022/01/25 13:21:59;;;;;;;54.20;16.75;;;;;;;;;;4982127;28;20145;-70
2022/01/25 13:24:29;;;;;;;76.13;17.85;;;;;;;;;;4983538;28;20120;-69
2022/01/25 13:27:05;;;;;;;52.88;16.02;;;;;;;;;;4984014;28;20093;-69
2022/01/25 13:32:30;;;;;;;58.47;15.00;;;;;;;;;;4980874;28;20045;-70
2022/01/25 13:35:17;;;;;;;64.35;15.80;;;;;;;;;;4980957;28;20026;-69
2022/01/25 13:37:45;;;;;;;50.20;15.70;;;;;;;;;;4981328;28;20097;-70
2022/01/25 13:40:13;;;;;;;67.07;18.92;;;;;;;;;;4980835;28;20888;-68
2022/01/25 13:43:07;;;;;;;53.65;15.98;;;;;;;;;;4980683;28;20822;-68
2022/01/25 13:45:47;;;;;;;66.20;15.65;;;;;;;;;;4979880;28;20030;-67
2022/01/25 13:48:14;;;;;;;48.22;16.27;;;;;;;;;;4983385;28;20100;-67
2022/01/25 13:50:40;;;;;;;108.07;19.52;;;;;;;;;;4979392;28;20053;-67
2022/01/25 13:53:08;;;;;;;50.80;15.02;;;;;;;;;;4981688;28;20312;-67
2022/01/25 13:55:35;;;;;;;56.50;15.07;;;;;;;;;;4983126;28;20034;-67
2022/01/25 13:58:00;;;;;;;98.18;15.45;;;;;;;;;;4994090;28;20043;-66
2022/01/25 14:00:26;;;;;;;29.55;10.73;;;;;;;;;;4982029;28;20042;-68
2022/01/25 14:02:55;;;;;;;72.28;14.82;;;;;;;;;;4979094;28;20125;-65
2022/01/25 14:05:20;;;;;;;48.47;13.27;;;;;;;;;;4982671;28;20026;-65
2022/01/25 14:07:48;;;;;;;49.95;15.95;;;;;;;;;;5000198;28;20033;-68
2022/01/25 14:10:21;;;;;;;58.30;15.32;;;;;;;;;;5001843;28;20046;-67
2022/01/25 14:23:47;;;;;;;44.10;12.85;;;;;;;;;;5001254;28;20072;-69
2022/01/25 14:26:14;;;;;;;81.90;14.13;;;;;;;;;;4998941;28;20096;-68
2022/01/25 14:28:43;;;;;;;50.25;15.25;;;;;;;;;;5000789;28;20068;-66
2022/01/25 14:31:19;;;;;;;49.40;15.25;;;;;;;;;;5000109;28;20061;-69
2022/01/25 14:34:01;;;;;;;64.03;16.08;;;;;;;;;;5000803;28;20037;-69
2022/01/25 14:36:29;;;;;;;58.15;15.20;;;;;;;;;;5000713;28;20049;-67
2022/01/25 14:38:56;;;;;;;49.95;14.15;;;;;;;;;;4998940;28;20065;-67
2022/01/25 14:41:29;;;;;;;56.75;15.68;;;;;;;;;;5000812;28;20080;-68
2022/01/25 14:43:58;;;;;;;;;;;;;;;;;;4984514;28;20057;-68
2022/01/25 14:46:34;;;;;;;58.85;14.32;;;;;;;;;;5000177;28;20031;-67
2022/01/25 14:49:07;;;;;;;73.78;16.65;;;;;;;;;;4999892;28;20042;-68
2022/01/25 14:51:53;;;;;;;51.55;15.73;;;;;;;;;;4998042;28;20069;-69
2022/01/25 14:54:20;;;;;;;75.63;15.25;;;;;;;;;;5000691;28;20056;-67
2022/01/25 14:56:49;;;;;;;64.78;16.13;;;;;;;;;;5000101;28;20048;-68
2022/01/25 14:59:27;;;;;;;64.60;14.88;;;;;;;;;;4997807;28;20480;-67
2022/01/25 15:01:52;;;;;;;60.25;15.02;;;;;;;;;;5001288;28;20124;-68
2022/01/25 15:04:18;;;;;;;67.07;15.18;;;;;;;;;;5003436;28;20133;-68
2022/01/25 15:06:43;;;;;;;59.15;14.73;;;;;;;;;;5000602;28;20526;-68
2022/01/25 15:09:10;;;;;;;72.82;16.55;;;;;;;;;;4981808;28;20040;-67
2022/01/25 15:11:35;;;;;;;82.97;15.18;;;;;;;;;;4998872;28;20046;-72
2022/01/25 15:14:10;;;;;;;100.43;17.75;;;;;;;;;;5001511;28;20026;-72
2022/01/25 15:16:36;;;;;;;63.05;14.75;;;;;;;;;;4998546;28;20077;-72
2022/01/25 15:19:03;;;;;;;68.95;16.58;;;;;;;;;;4999081;28;20053;-70
2022/01/25 15:21:29;;;;;;;63.72;16.45;;;;;;;;;;4998750;28;20037;-70
2022/01/25 15:23:54;;;;;;;67.63;17.20;;;;;;;;;;4996903;28;20291;-70
2022/01/25 15:26:20;;;;;;;65.50;16.23;;;;;;;;;;4998292;28;20030;-73
2022/01/25 15:28:50;;;;;;;58.60;16.17;;;;;;;;;;4998505;28;20030;-74
2022/01/25 15:31:20;;;;;;;62.20;14.98;;;;;;;;;;4998161;28;20195;-73
2022/01/25 15:33:48;;;;;;;66.93;17.45;;;;;;;;;;5000623;28;20566;-72
2022/01/25 15:36:16;;;;;;;106.80;16.50;;;;;;;;;;5001581;28;20037;-71
2022/01/25 15:38:46;;;;;;;54.30;15.70;;;;;;;;;;4999203;28;20042;-69
2022/01/25 15:41:13;;;;;;;55.83;14.63;;;;;;;;;;4982413;28;20034;-69
2022/01/25 15:43:56;;;;;;;53.20;15.50;;;;;;;;;;4998468;28;20037;-70
2022/01/25 15:46:32;;;;;;;;;;;;;;;;;;5000187;28;20041;-73
2022/01/25 15:49:04;;;;;;;57.92;13.88;;;;;;;;;;4999949;28;19932;-69
2022/01/25 15:51:29;;;;;;;57.30;13.55;;;;;;;;;;5000674;28;20038;-73
2022/01/25 15:53:55;;;;;;;41.47;12.40;;;;;;;;;;5001843;28;20056;-72
2022/01/25 15:56:21;;;;;;;49.50;14.20;;;;;;;;;;4979996;28;20510;-72
2022/01/25 15:58:47;;;;;;;61.63;14.98;;;;;;;;;;4996685;28;20234;-72
2022/01/25 16:01:13;;;;;;;49.17;14.35;;;;;;;;;;4995967;28;20191;-69
2022/01/25 16:03:40;;;;;;;51.15;15.07;;;;;;;;;;4983281;28;20034;-70
2022/01/25 16:06:07;;;;;;;56.10;15.93;;;;;;;;;;4973911;28;20042;-72
2022/01/25 16:08:33;;;;;;;54.58;15.60;;;;;;;;;;4983414;28;20091;-71
2022/01/25 16:10:59;;;;;;;57.13;15.57;;;;;;;;;;5001507;28;20042;-71
2022/01/25 16:13:25;;;;;;;59.33;15.57;;;;;;;;;;4995947;28;20048;-69
2022/01/25 16:15:51;;;;;;;64.88;18.08;;;;;;;;;;4998621;28;20038;-70
2022/01/25 16:18:16;;;;;;;55.17;16.05;;;;;;;;;;5002619;28;20042;-71
2022/01/25 16:20:42;;;;;;;74.47;15.93;;;;;;;;;;4999413;28;20165;-70
2022/01/25 16:23:08;;;;;;;77.82;18.05;;;;;;;;;;4996437;28;20034;-70